sensor_id;sensor_type;location;lat;lon;timestamp;pressure;altitude;pressure_sealevel;temperature;humidity
53270;BME280;39159;45.634;9.420;2023-02-08T00:01:11;100816.84;;;-0.66;88.76
53270;BME280;39159;45.634;9.420;2023-02-08T00:03:37;100814.75;;;-0.70;89.10
53270;BME280;39159;45.634;9.420;2023-02-08T00:06:04;100812.16;;;-0.78;89.18
53270;BME280;39159;45.634;9.420;2023-02-08T00:08:31;100805.72;;;-0.84;90.17
53270;BME280;39159;45.634;9.420;2023-02-08T00:10:56;100822.63;;;-0.84;89.97
53270;BME280;39159;45.634;9.420;2023-02-08T00:13:22;100823.09;;;-0.80;89.98
53270;BME280;39159;45.634;9.420;2023-02-08T00:15:47;100815.59;;;-0.85;90.54
53270;BME280;39159;45.634;9.420;2023-02-08T00:18:13;100811.56;;;-0.95;90.66
53270;BME280;39159;45.634;9.420;2023-02-08T00:20:40;100813.75;;;-0.99;90.64
53270;BME280;39159;45.634;9.420;2023-02-08T00:23:06;100812.66;;;-1.05;91.61
53270;BME280;39159;45.634;9.420;2023-02-08T00:25:32;100813.22;;;-1.09;91.56
53270;BME280;39159;45.634;9.420;2023-02-08T00:27:58;100815.44;;;-1.13;92.48
53270;BME280;39159;45.634;9.420;2023-02-08T00:30:24;100823.47;;;-1.13;92.02
53270;BME280;39159;45.634;9.420;2023-02-08T00:32:49;100819.69;;;-1.18;92.42
53270;BME280;39159;45.634;9.420;2023-02-08T00:35:15;100820.25;;;-1.23;93.31
53270;BME280;39159;45.634;9.420;2023-02-08T00:37:40;100811.56;;;-1.25;93.30
53270;BME280;39159;45.634;9.420;2023-02-08T00:40:06;100810.25;;;-1.29;93.97
53270;BME280;39159;45.634;9.420;2023-02-08T00:42:32;100818.13;;;-1.28;93.78
53270;BME280;39159;45.634;9.420;2023-02-08T00:44:57;100810.25;;;-1.29;93.49
53270;BME280;39159;45.634;9.420;2023-02-08T00:47:23;100817.84;;;-1.33;93.36
53270;BME280;39159;45.634;9.420;2023-02-08T00:49:48;100819.50;;;-1.32;93.39
53270;BME280;39159;45.634;9.420;2023-02-08T00:52:14;100817.84;;;-1.33;93.14
53270;BME280;39159;45.634;9.420;2023-02-08T00:54:39;100821.06;;;-1.37;93.65
53270;BME280;39159;45.634;9.420;2023-02-08T00:57:06;100814.69;;;-1.36;93.50
53270;BME280;39159;45.634;9.420;2023-02-08T00:59:31;100825.78;;;-1.39;93.53
53270;BME280;39159;45.634;9.420;2023-02-08T01:01:57;100827.81;;;-1.41;94.18
53270;BME280;39159;45.634;9.420;2023-02-08T01:04:22;100821.81;;;-1.43;94.06
53270;BME280;39159;45.634;9.420;2023-02-08T01:06:47;100832.50;;;-1.43;93.54
53270;BME280;39159;45.634;9.420;2023-02-08T01:09:13;100827.97;;;-1.43;93.13
53270;BME280;39159;45.634;9.420;2023-02-08T01:11:38;100828.81;;;-1.42;93.06
53270;BME280;39159;45.634;9.420;2023-02-08T01:14:03;100831.97;;;-1.39;92.87
53270;BME280;39159;45.634;9.420;2023-02-08T01:16:31;100831.25;;;-1.33;92.26
53270;BME280;39159;45.634;9.420;2023-02-08T01:18:58;100838.78;;;-1.36;92.05
53270;BME280;39159;45.634;9.420;2023-02-08T01:21:32;100840.16;;;-1.40;92.32
53270;BME280;39159;45.634;9.420;2023-02-08T01:23:59;100843.06;;;-1.42;91.97
53270;BME280;39159;45.634;9.420;2023-02-08T01:26:25;100838.69;;;-1.43;92.07
53270;BME280;39159;45.634;9.420;2023-02-08T01:28:51;100841.75;;;-1.46;92.20
53270;BME280;39159;45.634;9.420;2023-02-08T01:31:19;100840.44;;;-1.50;92.96
53270;BME280;39159;45.634;9.420;2023-02-08T01:33:46;100840.28;;;-1.49;92.25
53270;BME280;39159;45.634;9.420;2023-02-08T01:36:12;100840.28;;;-1.49;92.60
53270;BME280;39159;45.634;9.420;2023-02-08T01:38:38;100844.78;;;-1.49;92.65
53270;BME280;39159;45.634;9.420;2023-02-08T01:41:05;100840.28;;;-1.49;92.82
53270;BME280;39159;45.634;9.420;2023-02-08T01:46:22;100834.63;;;-1.54;93.21
53270;BME280;39159;45.634;9.420;2023-02-08T01:48:48;100840.28;;;-1.49;93.39
53270;BME280;39159;45.634;9.420;2023-02-08T01:51:19;100839.72;;;-1.44;93.07
53270;BME280;39159;45.634;9.420;2023-02-08T01:53:46;100843.06;;;-1.42;92.28
53270;BME280;39159;45.634;9.420;2023-02-08T01:56:26;100838.03;;;-1.45;92.42
53270;BME280;39159;45.634;9.420;2023-02-08T01:58:56;100840.16;;;-1.40;92.56
53270;BME280;39159;45.634;9.420;2023-02-08T02:01:23;100843.69;;;-1.40;92.07
53270;BME280;39159;45.634;9.420;2023-02-08T02:03:50;100840.66;;;-1.37;91.56
53270;BME280;39159;45.634;9.420;2023-02-08T02:06:20;100833.34;;;-1.43;91.67
53270;BME280;39159;45.634;9.420;2023-02-08T02:08:52;100836.63;;;-1.56;92.69
53270;BME280;39159;45.634;9.420;2023-02-08T02:11:19;100835.63;;;-1.55;93.80
53270;BME280;39159;45.634;9.420;2023-02-08T02:13:46;100843.94;;;-1.50;93.29
53270;BME280;39159;45.634;9.420;2023-02-08T02:16:12;100841.38;;;-1.43;92.70
53270;BME280;39159;45.634;9.420;2023-02-08T02:18:37;100842.50;;;-1.37;91.77
53270;BME280;39159;45.634;9.420;2023-02-08T02:35:09;100848.22;;;-1.40;90.58
53270;BME280;39159;45.634;9.420;2023-02-08T02:37:11;100840.81;;;-1.53;91.94
53270;BME280;39159;45.634;9.420;2023-02-08T02:39:51;100849.50;;;-1.51;92.35
53270;BME280;39159;45.634;9.420;2023-02-08T02:42:28;100844.78;;;-1.49;92.18
53270;BME280;39159;45.634;9.420;2023-02-08T02:48:16;100847.09;;;-1.46;91.71
53270;BME280;39159;45.634;9.420;2023-02-08T02:50:49;100840.28;;;-1.49;91.56
53270;BME280;39159;45.634;9.420;2023-02-08T02:56:38;100840.81;;;-1.38;92.18
53270;BME280;39159;45.634;9.420;2023-02-08T02:59:08;100846.00;;;-1.37;91.95
53270;BME280;39159;45.634;9.420;2023-02-08T03:01:34;100844.06;;;-1.43;91.41
53270;BME280;39159;45.634;9.420;2023-02-08T03:04:11;100839.91;;;-1.46;92.48
53270;BME280;39159;45.634;9.420;2023-02-08T03:09:59;100853.28;;;-1.83;95.12
53270;BME280;39159;45.634;9.420;2023-02-08T03:12:58;100850.50;;;-1.90;95.47
53270;BME280;39159;45.634;9.420;2023-02-08T03:18:19;100857.81;;;-1.84;95.56
53270;BME280;39159;45.634;9.420;2023-02-08T03:21:08;100861.59;;;-1.78;95.29
53270;BME280;39159;45.634;9.420;2023-02-08T03:23:44;100853.34;;;-1.69;95.15
53270;BME280;39159;45.634;9.420;2023-02-08T03:26:30;100850.78;;;-1.62;94.13
53270;BME280;39159;45.634;9.420;2023-02-08T03:31:56;100852.16;;;-1.66;94.58
53270;BME280;39159;45.634;9.420;2023-02-08T03:37:19;100843.41;;;-1.83;94.74
53270;BME280;39159;45.634;9.420;2023-02-08T03:39:48;100841.34;;;-1.96;95.68
53270;BME280;39159;45.634;9.420;2023-02-08T03:42:20;100846.06;;;-1.98;96.22
53270;BME280;39159;45.634;9.420;2023-02-08T03:45:00;100839.56;;;-2.03;96.32
53270;BME280;39159;45.634;9.420;2023-02-08T03:47:36;100842.25;;;-2.03;96.69
53270;BME280;39159;45.634;9.420;2023-02-08T03:50:06;100848.31;;;-2.10;96.14
53270;BME280;39159;45.634;9.420;2023-02-08T03:52:33;100850.53;;;-2.13;97.20
53270;BME280;39159;45.634;9.420;2023-02-08T03:55:04;100840.66;;;-2.13;97.17
53270;BME280;39159;45.634;9.420;2023-02-08T03:57:35;100843.97;;;-2.11;97.19
53270;BME280;39159;45.634;9.420;2023-02-08T04:00:07;100831.59;;;-2.12;96.80
53270;BME280;39159;45.634;9.420;2023-02-08T04:02:37;100832.34;;;-2.18;97.58
53270;BME280;39159;45.634;9.420;2023-02-08T04:05:06;100820.38;;;-2.30;97.94
53270;BME280;39159;45.634;9.420;2023-02-08T04:07:32;100829.22;;;-2.30;98.58
53270;BME280;39159;45.634;9.420;2023-02-08T04:09:57;100831.59;;;-2.35;98.51
53270;BME280;39159;45.634;9.420;2023-02-08T04:12:23;100826.63;;;-2.38;99.06
53270;BME280;39159;45.634;9.420;2023-02-08T04:14:48;100825.44;;;-2.35;99.93
53270;BME280;39159;45.634;9.420;2023-02-08T04:17:13;100826.75;;;-2.31;99.93
53270;BME280;39159;45.634;9.420;2023-02-08T04:19:39;100834.56;;;-2.30;99.53
53270;BME280;39159;45.634;9.420;2023-02-08T04:22:04;100834.44;;;-2.36;100.00
53270;BME280;39159;45.634;9.420;2023-02-08T04:24:30;100828.13;;;-2.43;100.00
53270;BME280;39159;45.634;9.420;2023-02-08T04:26:55;100835.34;;;-2.44;100.00
53270;BME280;39159;45.634;9.420;2023-02-08T04:29:21;100826.28;;;-2.43;100.00
53270;BME280;39159;45.634;9.420;2023-02-08T04:31:46;100829.63;;;-2.41;100.00
53270;BME280;39159;45.634;9.420;2023-02-08T04:34:12;100827.25;;;-2.36;100.00
53270;BME280;39159;45.634;9.420;2023-02-08T04:36:37;100831.44;;;-2.33;100.00
53270;BME280;39159;45.634;9.420;2023-02-08T04:39:02;100826.53;;;-2.30;100.00
53270;BME280;39159;45.634;9.420;2023-02-08T04:41:28;100823.03;;;-2.30;100.00
53270;BME280;39159;45.634;9.420;2023-02-08T04:43:53;100816.50;;;-2.27;99.93
53270;BME280;39159;45.634;9.420;2023-02-08T04:46:19;100819.47;;;-2.22;99.22
53270;BME280;39159;45.634;9.420;2023-02-08T04:48:44;100821.50;;;-2.24;99.87
53270;BME280;39159;45.634;9.420;2023-02-08T04:51:09;100823.88;;;-2.30;99.81
53270;BME280;39159;45.634;9.420;2023-02-08T04:53:35;100828.03;;;-2.27;99.77
53270;BME280;39159;45.634;9.420;2023-02-08T04:56:00;100824.06;;;-2.31;99.90
53270;BME280;39159;45.634;9.420;2023-02-08T04:58:26;100821.72;;;-2.34;100.00
53270;BME280;39159;45.634;9.420;2023-02-08T05:00:51;100822.91;;;-2.37;100.00
53270;BME280;39159;45.634;9.420;2023-02-08T05:03:16;100827.59;;;-2.39;100.00
53270;BME280;39159;45.634;9.420;2023-02-08T05:05:42;100820.63;;;-2.40;100.00
53270;BME280;39159;45.634;9.420;2023-02-08T05:08:07;100821.03;;;-2.28;100.00
53270;BME280;39159;45.634;9.420;2023-02-08T05:10:33;100824.56;;;-1.67;100.00
53270;BME280;39159;45.634;9.420;2023-02-08T05:12:58;100819.09;;;-1.58;100.00
53270;BME280;39159;45.634;9.420;2023-02-08T05:15:24;100818.28;;;-1.59;100.00
53270;BME280;39159;45.634;9.420;2023-02-08T05:17:49;100819.66;;;-1.63;100.00
53270;BME280;39159;45.634;9.420;2023-02-08T05:20:14;100816.91;;;-1.55;100.00
53270;BME280;39159;45.634;9.420;2023-02-08T05:22:40;100823.75;;;-1.37;100.00
53270;BME280;39159;45.634;9.420;2023-02-08T05:25:06;100818.75;;;-1.26;100.00
53270;BME280;39159;45.634;9.420;2023-02-08T05:27:33;100826.16;;;-1.13;100.00
53270;BME280;39159;45.634;9.420;2023-02-08T05:29:58;100820.50;;;-1.03;100.00
53270;BME280;39159;45.634;9.420;2023-02-08T05:32:24;100822.63;;;-0.84;100.00
53270;BME280;39159;45.634;9.420;2023-02-08T05:34:49;100817.25;;;-0.69;100.00
53270;BME280;39159;45.634;9.420;2023-02-08T05:37:15;100823.03;;;-0.65;97.59
53270;BME280;39159;45.634;9.420;2023-02-08T05:39:40;100825.69;;;-0.50;100.00
53270;BME280;39159;45.634;9.420;2023-02-08T05:42:06;100827.00;;;-0.46;98.42
53270;BME280;39159;45.634;9.420;2023-02-08T05:44:31;100823.19;;;-0.88;91.80
53270;BME280;39159;45.634;9.420;2023-02-08T05:46:57;100822.28;;;-0.95;96.44
53270;BME280;39159;45.634;9.420;2023-02-08T05:49:22;100836.59;;;-0.73;100.00
53270;BME280;39159;45.634;9.420;2023-02-08T05:51:48;100828.84;;;-0.47;100.00
53270;BME280;39159;45.634;9.420;2023-02-08T05:54:15;100833.13;;;-0.09;100.00
53270;BME280;39159;45.634;9.420;2023-02-08T05:56:41;100831.53;;;0.18;100.00
53270;BME280;39159;45.634;9.420;2023-02-08T05:59:08;100832.03;;;0.28;100.00
53270;BME280;39159;45.634;9.420;2023-02-08T06:01:34;100836.53;;;0.49;100.00
53270;BME280;39159;45.634;9.420;2023-02-08T06:04:00;100841.38;;;0.11;87.20
53270;BME280;39159;45.634;9.420;2023-02-08T06:06:25;100843.72;;;-0.23;88.46
53270;BME280;39159;45.634;9.420;2023-02-08T06:08:51;100849.03;;;-0.66;89.46
53270;BME280;39159;45.634;9.420;2023-02-08T06:11:16;100848.41;;;-0.82;91.40
53270;BME280;39159;45.634;9.420;2023-02-08T06:13:43;100851.09;;;-0.97;93.16
53270;BME280;39159;45.634;9.420;2023-02-08T06:16:10;100849.91;;;-1.10;94.75
53270;BME280;39159;45.634;9.420;2023-02-08T06:18:36;100847.28;;;-1.18;96.95
53270;BME280;39159;45.634;9.420;2023-02-08T06:21:01;100850.72;;;-1.24;95.38
53270;BME280;39159;45.634;9.420;2023-02-08T06:23:27;100849.81;;;-1.31;97.70
53270;BME280;39159;45.634;9.420;2023-02-08T06:25:52;100856.25;;;-1.40;96.67
53270;BME280;39159;45.634;9.420;2023-02-08T06:28:17;100855.69;;;-1.36;100.00
53270;BME280;39159;45.634;9.420;2023-02-08T06:30:43;100857.00;;;-1.47;97.45
53270;BME280;39159;45.634;9.420;2023-02-08T06:33:08;100860.00;;;-1.64;98.63
53270;BME280;39159;45.634;9.420;2023-02-08T06:35:34;100858.16;;;-1.64;100.00
53270;BME280;39159;45.634;9.420;2023-02-08T06:37:59;100856.03;;;-1.92;98.75
53270;BME280;39159;45.634;9.420;2023-02-08T06:40:25;100864.41;;;-1.95;100.00
53270;BME280;39159;45.634;9.420;2023-02-08T06:42:50;100859.06;;;-1.95;100.00
53270;BME280;39159;45.634;9.420;2023-02-08T06:45:16;100864.91;;;-1.91;100.00
53270;BME280;39159;45.634;9.420;2023-02-08T06:47:42;100859.03;;;-1.72;100.00
53270;BME280;39159;45.634;9.420;2023-02-08T06:50:08;100864.13;;;-1.77;100.00
53270;BME280;39159;45.634;9.420;2023-02-08T06:52:33;100871.53;;;-1.87;100.00
53270;BME280;39159;45.634;9.420;2023-02-08T06:54:59;100872.84;;;-1.83;100.00
53270;BME280;39159;45.634;9.420;2023-02-08T06:57:24;100864.97;;;-1.99;100.00
53270;BME280;39159;45.634;9.420;2023-02-08T06:59:50;100875.06;;;-2.10;100.00
53270;BME280;39159;45.634;9.420;2023-02-08T07:02:17;100864.75;;;-2.21;100.00
53270;BME280;39159;45.634;9.420;2023-02-08T07:04:43;100868.34;;;-2.05;100.00
53270;BME280;39159;45.634;9.420;2023-02-08T07:07:11;100871.19;;;-2.07;100.00
53270;BME280;39159;45.634;9.420;2023-02-08T07:09:36;100860.44;;;-1.99;100.00
53270;BME280;39159;45.634;9.420;2023-02-08T07:12:03;100863.75;;;-1.97;100.00
53270;BME280;39159;45.634;9.420;2023-02-08T07:14:33;100868.69;;;-1.85;100.00
53270;BME280;39159;45.634;9.420;2023-02-08T07:17:00;100866.41;;;-1.74;100.00
53270;BME280;39159;45.634;9.420;2023-02-08T07:19:26;100879.47;;;-1.56;100.00
53270;BME280;39159;45.634;9.420;2023-02-08T07:21:52;100877.94;;;-1.50;100.00
53270;BME280;39159;45.634;9.420;2023-02-08T07:24:17;100875.38;;;-1.43;100.00
53270;BME280;39159;45.634;9.420;2023-02-08T07:26:43;100871.75;;;-1.51;100.00
53270;BME280;39159;45.634;9.420;2023-02-08T07:29:08;100868.53;;;-1.46;100.00
53270;BME280;39159;45.634;9.420;2023-02-08T07:31:34;100863.56;;;-1.34;100.00
53270;BME280;39159;45.634;9.420;2023-02-08T07:33:59;100863.94;;;-1.37;100.00
53270;BME280;39159;45.634;9.420;2023-02-08T07:36:25;100869.38;;;-1.31;100.00
53270;BME280;39159;45.634;9.420;2023-02-08T07:38:50;100860.16;;;-1.28;100.00
53270;BME280;39159;45.634;9.420;2023-02-08T07:41:15;100859.03;;;-1.34;99.94
53270;BME280;39159;45.634;9.420;2023-02-08T07:43:41;100858.19;;;-1.34;100.00
53270;BME280;39159;45.634;9.420;2023-02-08T07:46:15;100867.16;;;-1.42;100.00
53270;BME280;39159;45.634;9.420;2023-02-08T07:48:41;100854.97;;;-1.44;100.00
53270;BME280;39159;45.634;9.420;2023-02-08T07:51:08;100864.09;;;-1.39;100.00
53270;BME280;39159;45.634;9.420;2023-02-08T07:53:34;100858.38;;;-1.36;100.00
53270;BME280;39159;45.634;9.420;2023-02-08T07:55:59;100858.28;;;-1.28;100.00
53270;BME280;39159;45.634;9.420;2023-02-08T07:58:25;100858.00;;;-1.18;100.00
53270;BME280;39159;45.634;9.420;2023-02-08T08:00:51;100854.13;;;-1.00;100.00
53270;BME280;39159;45.634;9.420;2023-02-08T08:03:16;100861.22;;;-0.63;100.00
53270;BME280;39159;45.634;9.420;2023-02-08T08:05:42;100866.31;;;-0.17;99.76
53270;BME280;39159;45.634;9.420;2023-02-08T08:08:08;100863.81;;;0.25;96.94
53270;BME280;39159;45.634;9.420;2023-02-08T08:10:34;100863.56;;;0.69;94.38
53270;BME280;39159;45.634;9.420;2023-02-08T08:13:00;100860.25;;;1.09;89.22
53270;BME280;39159;45.634;9.420;2023-02-08T08:15:25;100854.38;;;1.33;84.84
53270;BME280;39159;45.634;9.420;2023-02-08T08:17:51;100862.53;;;1.53;83.47
53270;BME280;39159;45.634;9.420;2023-02-08T08:20:17;100864.44;;;1.66;81.59
53270;BME280;39159;45.634;9.420;2023-02-08T08:22:42;100856.06;;;1.96;81.43
53270;BME280;39159;45.634;9.420;2023-02-08T08:25:08;100856.91;;;2.23;78.84
53270;BME280;39159;45.634;9.420;2023-02-08T08:27:33;100848.41;;;2.46;76.50
53270;BME280;39159;45.634;9.420;2023-02-08T08:29:59;100850.06;;;2.74;73.40
53270;BME280;39159;45.634;9.420;2023-02-08T08:32:25;100848.56;;;2.91;72.24
53270;BME280;39159;45.634;9.420;2023-02-08T08:34:50;100853.69;;;3.13;70.11
53270;BME280;39159;45.634;9.420;2023-02-08T08:37:16;100855.56;;;3.12;68.55
53270;BME280;39159;45.634;9.420;2023-02-08T08:39:41;100851.97;;;3.38;67.21
53270;BME280;39159;45.634;9.420;2023-02-08T08:42:07;100848.72;;;3.68;64.96
53270;BME280;39159;45.634;9.420;2023-02-08T08:44:32;100845.34;;;3.72;61.57
53270;BME280;39159;45.634;9.420;2023-02-08T08:46:59;100844.69;;;3.77;59.33
53270;BME280;39159;45.634;9.420;2023-02-08T08:49:26;100849.16;;;3.97;60.89
53270;BME280;39159;45.634;9.420;2023-02-08T08:51:52;100856.22;;;3.98;58.73
53270;BME280;39159;45.634;9.420;2023-02-08T08:54:18;100850.25;;;4.21;59.13
53270;BME280;39159;45.634;9.420;2023-02-08T08:56:44;100857.97;;;4.42;58.23
53270;BME280;39159;45.634;9.420;2023-02-08T08:59:09;100850.63;;;4.74;56.80
53270;BME280;39159;45.634;9.420;2023-02-08T09:01:35;100858.34;;;4.96;56.14
53270;BME280;39159;45.634;9.420;2023-02-08T09:04:01;100853.34;;;4.93;53.73
53270;BME280;39159;45.634;9.420;2023-02-08T09:06:26;100858.13;;;5.16;54.77
53270;BME280;39159;45.634;9.420;2023-02-08T09:08:52;100853.06;;;5.19;51.91
53270;BME280;39159;45.634;9.420;2023-02-08T09:11:17;100855.38;;;5.53;50.18
53270;BME280;39159;45.634;9.420;2023-02-08T09:13:42;100853.78;;;5.64;47.11
53270;BME280;39159;45.634;9.420;2023-02-08T09:16:13;100853.53;;;5.84;47.76
53270;BME280;39159;45.634;9.420;2023-02-08T09:18:39;100858.97;;;6.14;44.03
53270;BME280;39159;45.634;9.420;2023-02-08T09:21:13;100861.09;;;6.23;42.75
53270;BME280;39159;45.634;9.420;2023-02-08T09:23:38;100862.63;;;6.31;43.69
53270;BME280;39159;45.634;9.420;2023-02-08T09:26:05;100865.00;;;6.28;41.68
53270;BME280;39159;45.634;9.420;2023-02-08T09:28:32;100856.78;;;6.04;41.51
53270;BME280;39159;45.634;9.420;2023-02-08T09:30:58;100858.81;;;6.09;42.69
53270;BME280;39159;45.634;9.420;2023-02-08T09:33:26;100852.88;;;6.42;42.15
53270;BME280;39159;45.634;9.420;2023-02-08T09:35:52;100856.22;;;6.56;41.96
53270;BME280;39159;45.634;9.420;2023-02-08T09:38:17;100855.97;;;6.57;42.39
53270;BME280;39159;45.634;9.420;2023-02-08T09:40:48;100852.66;;;6.01;40.99
53270;BME280;39159;45.634;9.420;2023-02-08T09:43:49;100862.69;;;6.43;41.61
53270;BME280;39159;45.634;9.420;2023-02-08T09:46:21;100858.22;;;6.84;40.88
53270;BME280;39159;45.634;9.420;2023-02-08T09:48:49;100865.78;;;6.94;39.10
53270;BME280;39159;45.634;9.420;2023-02-08T09:51:40;100854.06;;;6.93;38.38
53270;BME280;39159;45.634;9.420;2023-02-08T09:54:31;100863.28;;;6.69;38.63
53270;BME280;39159;45.634;9.420;2023-02-08T09:57:00;100866.34;;;6.72;39.17
53270;BME280;39159;45.634;9.420;2023-02-08T09:59:28;100865.66;;;7.00;39.16
53270;BME280;39159;45.634;9.420;2023-02-08T10:02:09;100868.72;;;6.92;38.40
53270;BME280;39159;45.634;9.420;2023-02-08T10:04:57;100872.50;;;6.56;38.53
53270;BME280;39159;45.634;9.420;2023-02-08T10:07:25;100862.94;;;6.77;39.52
53270;BME280;39159;45.634;9.420;2023-02-08T10:09:52;100863.28;;;7.04;39.64
53270;BME280;39159;45.634;9.420;2023-02-08T10:12:58;100872.94;;;7.23;38.59
53270;BME280;39159;45.634;9.420;2023-02-08T10:15:41;100881.63;;;7.49;37.66
53270;BME280;39159;45.634;9.420;2023-02-08T10:36:59;100879.16;;;7.47;34.41
53270;BME280;39159;45.634;9.420;2023-02-08T10:39:31;100883.53;;;7.37;34.93
53270;BME280;39159;45.634;9.420;2023-02-08T10:41:58;100873.19;;;7.10;35.64
53270;BME280;39159;45.634;9.420;2023-02-08T10:49:41;100861.75;;;7.08;36.12
53270;BME280;39159;45.634;9.420;2023-02-08T10:52:09;100868.91;;;7.26;36.46
53270;BME280;39159;45.634;9.420;2023-02-08T10:54:34;100857.22;;;7.37;36.04
53270;BME280;39159;45.634;9.420;2023-02-08T10:57:02;100849.75;;;7.44;36.13
53270;BME280;39159;45.634;9.420;2023-02-08T10:59:32;100843.22;;;7.57;35.14
53270;BME280;39159;45.634;9.420;2023-02-08T11:01:59;100859.81;;;7.73;35.06
53270;BME280;39159;45.634;9.420;2023-02-08T11:04:25;100865.13;;;7.39;34.49
53270;BME280;39159;45.634;9.420;2023-02-08T11:06:50;100849.09;;;7.25;35.01
53270;BME280;39159;45.634;9.420;2023-02-08T11:09:30;100856.28;;;7.20;35.21
53270;BME280;39159;45.634;9.420;2023-02-08T11:11:57;100852.03;;;7.24;35.02
53270;BME280;39159;45.634;9.420;2023-02-08T11:14:36;100849.16;;;7.42;36.09
53270;BME280;39159;45.634;9.420;2023-02-08T11:17:22;100845.75;;;7.47;35.15
53270;BME280;39159;45.634;9.420;2023-02-08T11:19:49;100840.84;;;7.20;35.67
53270;BME280;39159;45.634;9.420;2023-02-08T11:22:16;100843.84;;;6.72;37.17
53270;BME280;39159;45.634;9.420;2023-02-08T11:24:43;100842.66;;;6.79;36.93
53270;BME280;39159;45.634;9.420;2023-02-08T11:27:17;100830.25;;;7.07;37.09
53270;BME280;39159;45.634;9.420;2023-02-08T11:29:43;100825.81;;;7.30;36.14
53270;BME280;39159;45.634;9.420;2023-02-08T11:32:17;100817.22;;;7.61;35.78
53270;BME280;39159;45.634;9.420;2023-02-08T11:34:44;100826.66;;;7.30;35.68
53270;BME280;39159;45.634;9.420;2023-02-08T11:37:28;100829.31;;;7.42;36.50
53270;BME280;39159;45.634;9.420;2023-02-08T11:39:57;100826.72;;;7.47;36.46
53270;BME280;39159;45.634;9.420;2023-02-08T11:44:49;100833.97;;;7.30;36.94
53270;BME280;39159;45.634;9.420;2023-02-08T11:47:17;100826.94;;;6.93;37.33
53270;BME280;39159;45.634;9.420;2023-02-08T11:49:55;100825.88;;;6.94;37.85
53270;BME280;39159;45.634;9.420;2023-02-08T11:52:26;100829.75;;;7.10;37.38
53270;BME280;39159;45.634;9.420;2023-02-08T11:54:54;100825.38;;;7.21;37.24
53270;BME280;39159;45.634;9.420;2023-02-08T11:57:22;100827.00;;;7.22;36.70
53270;BME280;39159;45.634;9.420;2023-02-08T11:59:50;100831.53;;;6.69;37.45
53270;BME280;39159;45.634;9.420;2023-02-08T12:02:30;100823.41;;;6.34;37.97
53270;BME280;39159;45.634;9.420;2023-02-08T12:04:58;100831.06;;;6.37;38.13
53270;BME280;39159;45.634;9.420;2023-02-08T12:07:36;100822.13;;;6.83;38.70
53270;BME280;39159;45.634;9.420;2023-02-08T12:13:27;100819.88;;;6.57;39.40
53270;BME280;39159;45.634;9.420;2023-02-08T12:21:56;100797.59;;;7.31;37.08
53270;BME280;39159;45.634;9.420;2023-02-08T12:35:37;100776.16;;;7.75;35.94
53270;BME280;39159;45.634;9.420;2023-02-08T12:55:24;100754.50;;;7.80;36.32
53270;BME280;39159;45.634;9.420;2023-02-08T12:57:57;100753.50;;;7.86;36.16
53270;BME280;39159;45.634;9.420;2023-02-08T13:03:11;100733.59;;;7.97;35.86
53270;BME280;39159;45.634;9.420;2023-02-08T13:05:43;100736.81;;;7.94;35.39
53270;BME280;39159;45.634;9.420;2023-02-08T13:08:23;100731.25;;;7.89;35.92
53270;BME280;39159;45.634;9.420;2023-02-08T13:10:54;100726.44;;;7.45;36.64
53270;BME280;39159;45.634;9.420;2023-02-08T13:13:29;100724.75;;;7.73;36.90
53270;BME280;39159;45.634;9.420;2023-02-08T13:15:56;100730.34;;;7.66;35.70
53270;BME280;39159;45.634;9.420;2023-02-08T13:18:30;100723.53;;;7.81;35.90
53270;BME280;39159;45.634;9.420;2023-02-08T13:21:00;100712.81;;;7.91;35.84
53270;BME280;39159;45.634;9.420;2023-02-08T13:23:39;100720.25;;;8.13;35.50
53270;BME280;39159;45.634;9.420;2023-02-08T13:26:07;100705.56;;;7.97;35.78
53270;BME280;39159;45.634;9.420;2023-02-08T13:28:36;100712.44;;;7.37;36.61
53270;BME280;39159;45.634;9.420;2023-02-08T13:31:14;100713.44;;;7.47;36.94
53270;BME280;39159;45.634;9.420;2023-02-08T13:33:45;100711.84;;;7.35;36.91
53270;BME280;39159;45.634;9.420;2023-02-08T13:36:29;100710.38;;;7.15;37.83
53270;BME280;39159;45.634;9.420;2023-02-08T13:38:57;100709.88;;;7.30;37.70
53270;BME280;39159;45.634;9.420;2023-02-08T13:41:25;100702.44;;;7.25;37.68
53270;BME280;39159;45.634;9.420;2023-02-08T13:44:03;100696.34;;;7.18;37.08
53270;BME280;39159;45.634;9.420;2023-02-08T13:46:35;100706.31;;;7.30;37.50
53270;BME280;39159;45.634;9.420;2023-02-08T13:49:01;100705.91;;;7.38;37.29
53270;BME280;39159;45.634;9.420;2023-02-08T13:59:03;100710.00;;;7.52;37.99
53270;BME280;39159;45.634;9.420;2023-02-08T14:01:31;100702.47;;;7.42;37.50
53270;BME280;39159;45.634;9.420;2023-02-08T14:06:34;100706.50;;;7.11;38.56
53270;BME280;39159;45.634;9.420;2023-02-08T14:11:47;100709.47;;;6.57;39.03
53270;BME280;39159;45.634;9.420;2023-02-08T14:14:21;100711.38;;;6.57;39.52
53270;BME280;39159;45.634;9.420;2023-02-08T14:19:35;100717.50;;;6.64;39.95
53270;BME280;39159;45.634;9.420;2023-02-08T14:24:36;100719.75;;;6.20;40.07
53270;BME280;39159;45.634;9.420;2023-02-08T14:29:31;100719.63;;;6.27;39.88
53270;BME280;39159;45.634;9.420;2023-02-08T14:31:58;100726.22;;;5.95;41.06
53270;BME280;39159;45.634;9.420;2023-02-08T14:34:29;100728.50;;;5.80;41.50
53270;BME280;39159;45.634;9.420;2023-02-08T14:39:42;100721.56;;;5.72;40.98
53270;BME280;39159;45.634;9.420;2023-02-08T14:42:11;100727.25;;;5.82;41.10
53270;BME280;39159;45.634;9.420;2023-02-08T14:52:37;100750.97;;;5.08;42.18
53270;BME280;39159;45.634;9.420;2023-02-08T14:55:13;100745.22;;;4.86;42.68
53270;BME280;39159;45.634;9.420;2023-02-08T14:57:40;100752.59;;;4.79;43.13
53270;BME280;39159;45.634;9.420;2023-02-08T15:00:19;100750.03;;;4.66;42.93
53270;BME280;39159;45.634;9.420;2023-02-08T15:02:46;100746.94;;;4.62;43.14
53270;BME280;39159;45.634;9.420;2023-02-08T15:05:38;100746.78;;;4.57;43.61
53270;BME280;39159;45.634;9.420;2023-02-08T15:08:05;100743.00;;;4.40;43.78
53270;BME280;39159;45.634;9.420;2023-02-08T15:10:32;100753.78;;;4.21;44.79
53270;BME280;39159;45.634;9.420;2023-02-08T15:12:59;100762.34;;;4.18;44.95